Time;durP1;ratioP1;P1;durP2;ratioP2;P2;SDS_P1;SDS_P2;PMS_P1;PMS_P2;Temp;Humidity;BMP_temperature;BMP_pressure;BME280_temperature;BME280_humidity;BME280_pressure;Samples;Min_cycle;Max_cycle;Signal;HPM_P1;HPM_P2
2021/10/06 00:01:31;;;;;;;3.87;1.77;;;;;;;;;;5053405;28;20444;-57
2021/10/06 00:03:59;;;;;;;5.10;1.90;;;;;;;;;;5053286;28;20777;-57
2021/10/06 00:06:26;;;;;;;6.07;1.83;;;;;;;;;;5053006;28;20954;-56
2021/10/06 00:08:54;;;;;;;4.93;2.33;;;;;;;;;;5052887;28;20449;-55
2021/10/06 00:11:21;;;;;;;2.13;1.70;;;;;;;;;;5053172;28;20498;-57
2021/10/06 00:13:48;;;;;;;4.80;2.23;;;;;;;;;;5053047;28;20526;-56
2021/10/06 00:16:16;;;;;;;4.47;1.80;;;;;;;;;;5053169;28;20459;-57
2021/10/06 00:18:44;;;;;;;5.97;1.70;;;;;;;;;;5053238;28;20471;-56
2021/10/06 00:21:12;;;;;;;4.10;2.00;;;;;;;;;;5052726;28;20494;-56
2021/10/06 00:23:39;;;;;;;3.07;1.57;;;;;;;;;;5053999;28;20436;-57
2021/10/06 00:26:07;;;;;;;4.03;1.50;;;;;;;;;;5056774;28;20807;-56
2021/10/06 00:28:34;;;;;;;3.30;1.80;;;;;;;;;;5056780;28;20999;-57
2021/10/06 00:31:02;;;;;;;3.33;1.77;;;;;;;;;;5057089;28;20439;-56
2021/10/06 00:33:29;;;;;;;5.13;2.50;;;;;;;;;;5056913;28;20479;-56
2021/10/06 00:35:58;;;;;;;2.97;1.97;;;;;;;;;;5056723;28;20555;-56
2021/10/06 00:38:26;;;;;;;6.30;2.60;;;;;;;;;;5057051;28;20470;-56
2021/10/06 00:40:53;;;;;;;3.23;1.80;;;;;;;;;;5056557;28;20949;-56
2021/10/06 00:43:20;;;;;;;3.53;2.10;;;;;;;;;;5056898;28;20455;-56
2021/10/06 00:45:48;;;;;;;6.00;2.27;;;;;;;;;;5082490;22;20585;-62
2021/10/06 00:48:15;;;;;;;3.80;2.10;;;;;;;;;;5077489;28;20450;-61
2021/10/06 00:50:43;;;;;;;4.40;2.10;;;;;;;;;;5078162;28;20443;-61
2021/10/06 00:53:11;;;;;;;4.80;1.70;;;;;;;;;;5078664;28;20537;-61
2021/10/06 00:55:39;;;;;;;4.50;2.50;;;;;;;;;;5078234;28;20467;-61
2021/10/06 00:58:06;;;;;;;4.90;2.33;;;;;;;;;;5078018;28;20511;-61
2021/10/06 01:00:34;;;;;;;7.07;2.30;;;;;;;;;;5078173;28;20443;-61
2021/10/06 01:03:01;;;;;;;4.60;1.83;;;;;;;;;;5078306;28;20931;-61
2021/10/06 01:05:30;;;;;;;3.50;1.80;;;;;;;;;;5078040;28;20512;-61
2021/10/06 01:07:57;;;;;;;5.17;2.20;;;;;;;;;;5077834;28;20451;-61
2021/10/06 01:10:26;;;;;;;3.20;2.10;;;;;;;;;;5078463;28;20862;-61
2021/10/06 01:12:53;;;;;;;4.77;3.07;;;;;;;;;;5077246;28;20500;-61
2021/10/06 01:15:20;;;;;;;4.87;2.30;;;;;;;;;;5077834;28;20463;-61
2021/10/06 01:17:47;;;;;;;4.93;2.20;;;;;;;;;;5077541;28;20496;-61
2021/10/06 01:20:15;;;;;;;5.97;1.93;;;;;;;;;;5077109;28;20857;-61
2021/10/06 01:22:43;;;;;;;7.20;2.43;;;;;;;;;;5077113;28;20500;-61
2021/10/06 01:25:12;;;;;;;4.40;2.60;;;;;;;;;;5076640;28;20883;-61
2021/10/06 01:27:40;;;;;;;2.80;2.53;;;;;;;;;;5076544;28;20438;-61
2021/10/06 01:30:08;;;;;;;3.50;2.57;;;;;;;;;;5076347;28;20443;-60
2021/10/06 01:32:36;;;;;;;6.13;2.00;;;;;;;;;;5076297;28;20842;-61
2021/10/06 01:35:05;;;;;;;5.07;2.37;;;;;;;;;;5075061;28;20482;-61
2021/10/06 01:37:32;;;;;;;3.20;2.30;;;;;;;;;;5075685;28;20493;-61
2021/10/06 01:40:01;;;;;;;4.97;1.97;;;;;;;;;;5075727;28;20447;-62
2021/10/06 01:42:28;;;;;;;4.27;2.37;;;;;;;;;;5075637;28;20956;-61
2021/10/06 01:44:55;;;;;;;6.40;2.10;;;;;;;;;;5075868;28;20471;-62
2021/10/06 01:47:23;;;;;;;4.43;2.43;;;;;;;;;;5076603;28;20424;-61
2021/10/06 01:49:50;;;;;;;3.07;2.60;;;;;;;;;;5076729;28;20544;-61
2021/10/06 01:52:18;;;;;;;3.77;2.43;;;;;;;;;;5075845;28;20493;-61
2021/10/06 01:54:45;;;;;;;2.43;2.07;;;;;;;;;;5075231;28;20532;-62
2021/10/06 01:57:15;;;;;;;3.00;2.47;;;;;;;;;;5075675;28;20443;-62
2021/10/06 01:59:43;;;;;;;4.43;2.60;;;;;;;;;;5075605;28;20851;-62
2021/10/06 02:02:11;;;;;;;5.20;2.77;;;;;;;;;;5075531;28;20804;-62
2021/10/06 02:04:38;;;;;;;3.53;2.50;;;;;;;;;;5075441;28;20444;-63
2021/10/06 02:07:05;;;;;;;3.13;2.77;;;;;;;;;;5075093;28;20943;-61
2021/10/06 02:09:32;;;;;;;3.93;1.97;;;;;;;;;;5075336;28;20501;-62
2021/10/06 02:11:59;;;;;;;3.50;2.43;;;;;;;;;;5075324;28;20516;-62
2021/10/06 02:14:28;;;;;;;4.97;2.40;;;;;;;;;;5074849;28;20548;-60
2021/10/06 02:16:55;;;;;;;3.10;2.13;;;;;;;;;;5075057;28;20935;-62
2021/10/06 02:19:23;;;;;;;4.43;2.40;;;;;;;;;;5074921;28;20939;-62
2021/10/06 02:21:50;;;;;;;4.43;2.23;;;;;;;;;;5075191;28;20508;-62
2021/10/06 02:24:17;;;;;;;2.30;2.10;;;;;;;;;;5074986;28;20443;-61
2021/10/06 02:26:44;;;;;;;2.70;2.20;;;;;;;;;;5074874;28;20520;-62
2021/10/06 02:29:12;;;;;;;2.60;2.40;;;;;;;;;;5075621;28;20451;-62
2021/10/06 02:31:40;;;;;;;3.57;2.30;;;;;;;;;;5075061;28;20451;-62
2021/10/06 02:34:07;;;;;;;3.50;2.27;;;;;;;;;;5074963;28;20479;-62
2021/10/06 02:36:35;;;;;;;3.30;2.13;;;;;;;;;;5074842;28;20880;-62
2021/10/06 02:39:02;;;;;;;3.20;2.40;;;;;;;;;;5074504;28;20501;-62
2021/10/06 02:41:29;;;;;;;2.23;1.83;;;;;;;;;;5074471;28;20497;-62
2021/10/06 02:43:56;;;;;;;2.90;2.40;;;;;;;;;;5074718;28;20488;-62
2021/10/06 02:46:24;;;;;;;2.93;2.20;;;;;;;;;;5073984;28;20549;-62
2021/10/06 02:48:52;;;;;;;4.37;2.63;;;;;;;;;;5073863;28;20520;-61
2021/10/06 02:51:19;;;;;;;5.30;2.40;;;;;;;;;;5074348;28;20576;-62
2021/10/06 02:53:47;;;;;;;4.57;2.57;;;;;;;;;;5074518;28;20532;-62
2021/10/06 02:56:15;;;;;;;3.90;2.23;;;;;;;;;;5074397;28;20525;-62
2021/10/06 02:58:43;;;;;;;2.10;1.97;;;;;;;;;;5074261;28;20439;-62
2021/10/06 03:01:10;;;;;;;2.57;2.10;;;;;;;;;;5074392;28;20455;-62
2021/10/06 03:03:37;;;;;;;3.60;2.50;;;;;;;;;;5074447;28;20439;-61
2021/10/06 03:06:06;;;;;;;6.07;2.17;;;;;;;;;;5074451;28;20463;-62
2021/10/06 03:08:33;;;;;;;6.60;2.40;;;;;;;;;;5073938;28;20997;-62
2021/10/06 03:11:01;;;;;;;4.17;2.50;;;;;;;;;;5074299;28;20439;-62
2021/10/06 03:13:28;;;;;;;5.20;2.43;;;;;;;;;;5074139;28;20868;-61
2021/10/06 03:15:55;;;;;;;4.60;2.40;;;;;;;;;;5074065;28;20462;-61
2021/10/06 03:18:23;;;;;;;4.63;3.00;;;;;;;;;;5074105;28;20501;-61
2021/10/06 03:20:50;;;;;;;4.30;3.10;;;;;;;;;;5073702;28;20927;-61
2021/10/06 03:23:18;;;;;;;4.40;2.47;;;;;;;;;;5074477;28;20438;-61
2021/10/06 03:25:46;;;;;;;5.10;2.80;;;;;;;;;;5073749;28;20509;-61
2021/10/06 03:28:13;;;;;;;6.23;3.83;;;;;;;;;;5073988;28;20443;-61
2021/10/06 03:30:40;;;;;;;6.90;3.13;;;;;;;;;;5073993;28;20447;-61
2021/10/06 03:33:08;;;;;;;4.80;2.93;;;;;;;;;;5073959;28;20443;-60
2021/10/06 03:35:35;;;;;;;6.27;2.60;;;;;;;;;;5073591;28;20483;-60
2021/10/06 03:38:02;;;;;;;6.80;3.10;;;;;;;;;;5074111;28;20501;-60
2021/10/06 03:40:31;;;;;;;7.50;3.20;;;;;;;;;;5074589;28;20493;-59
2021/10/06 03:42:58;;;;;;;5.60;3.43;;;;;;;;;;5075350;28;20496;-62
2021/10/06 03:45:25;;;;;;;4.53;3.13;;;;;;;;;;5076432;28;20483;-61
2021/10/06 03:47:52;;;;;;;4.87;3.43;;;;;;;;;;5073329;28;20443;-61
2021/10/06 03:50:20;;;;;;;4.47;3.23;;;;;;;;;;5073777;28;20493;-61
2021/10/06 03:52:47;;;;;;;2.80;2.60;;;;;;;;;;5074001;28;20845;-61
2021/10/06 03:55:14;;;;;;;5.10;3.23;;;;;;;;;;5073398;28;20541;-61
2021/10/06 03:57:43;;;;;;;4.70;3.50;;;;;;;;;;5073875;28;20448;-61
2021/10/06 04:00:11;;;;;;;5.17;3.20;;;;;;;;;;5073312;28;20500;-59
2021/10/06 04:02:39;;;;;;;7.57;3.33;;;;;;;;;;5074131;28;20447;-61
2021/10/06 04:08:40;;;;;;;4.10;3.70;;;;;;;;;;5115783;27;20585;-61
2021/10/06 04:11:07;;;;;;;4.23;3.40;;;;;;;;;;5119673;28;20471;-61
2021/10/06 04:13:34;;;;;;;6.20;4.53;;;;;;;;;;5114709;28;20499;-61
2021/10/06 04:16:01;;;;;;;6.13;3.37;;;;;;;;;;5111615;28;20530;-62
2021/10/06 04:18:29;;;;;;;6.53;3.67;;;;;;;;;;5111326;28;20446;-61
2021/10/06 04:20:56;;;;;;;6.03;3.77;;;;;;;;;;5111593;28;20507;-61
2021/10/06 04:23:23;;;;;;;5.53;4.60;;;;;;;;;;5111321;28;20446;-62
2021/10/06 04:25:52;;;;;;;4.43;3.40;;;;;;;;;;5111509;28;20652;-62
2021/10/06 04:28:19;;;;;;;9.83;4.10;;;;;;;;;;5111312;28;20469;-61
2021/10/06 04:30:46;;;;;;;5.00;3.50;;;;;;;;;;5111119;28;20872;-60
2021/10/06 04:33:13;;;;;;;5.50;3.50;;;;;;;;;;5111677;28;20460;-61
2021/10/06 04:35:41;;;;;;;4.97;3.60;;;;;;;;;;5110964;28;20639;-61
2021/10/06 04:38:08;;;;;;;4.37;3.90;;;;;;;;;;5112885;28;20490;-61
2021/10/06 04:40:35;;;;;;;4.37;3.70;;;;;;;;;;5112069;28;20437;-61
2021/10/06 04:43:04;;;;;;;8.63;3.50;;;;;;;;;;5111432;28;20449;-61
2021/10/06 04:45:31;;;;;;;5.27;4.00;;;;;;;;;;5111321;28;20465;-61
2021/10/06 04:47:58;;;;;;;4.67;2.87;;;;;;;;;;5111317;28;20473;-62
2021/10/06 04:50:29;;;;;;;4.77;2.77;;;;;;;;;;5111207;28;20494;-61
2021/10/06 04:52:56;;;;;;;5.33;3.40;;;;;;;;;;5111222;28;20444;-61
2021/10/06 04:55:24;;;;;;;5.80;3.53;;;;;;;;;;5110887;28;20473;-62
2021/10/06 04:57:52;;;;;;;4.40;3.10;;;;;;;;;;5110864;28;20855;-62
2021/10/06 05:00:21;;;;;;;3.00;2.67;;;;;;;;;;5111181;28;20442;-60
2021/10/06 05:02:48;;;;;;;4.90;3.67;;;;;;;;;;5110860;28;20477;-62
2021/10/06 05:05:15;;;;;;;4.80;3.00;;;;;;;;;;5110482;28;20227;-62
2021/10/06 05:07:42;;;;;;;4.70;3.27;;;;;;;;;;5110931;28;20942;-63
2021/10/06 05:10:10;;;;;;;3.90;3.03;;;;;;;;;;5111664;28;20449;-59
2021/10/06 05:12:37;;;;;;;3.07;2.87;;;;;;;;;;5110972;28;20445;-61
2021/10/06 05:15:05;;;;;;;3.43;2.93;;;;;;;;;;5110534;28;20519;-62
2021/10/06 05:17:33;;;;;;;4.17;3.33;;;;;;;;;;5110920;28;20519;-62
2021/10/06 05:20:01;;;;;;;3.83;3.20;;;;;;;;;;5097300;28;20446;-61
2021/10/06 05:22:29;;;;;;;5.18;3.10;;;;;;;;;;5097282;28;20479;-62
2021/10/06 05:24:56;;;;;;;5.65;2.92;;;;;;;;;;5098138;28;20220;-60
2021/10/06 05:27:23;;;;;;;3.50;3.20;;;;;;;;;;5097213;28;20224;-60
2021/10/06 05:29:50;;;;;;;5.43;3.07;;;;;;;;;;5098327;28;20828;-61
2021/10/06 05:32:18;;;;;;;5.53;3.03;;;;;;;;;;5097011;28;20446;-62
2021/10/06 05:34:46;;;;;;;5.13;3.13;;;;;;;;;;5097388;28;20216;-62
2021/10/06 05:37:13;;;;;;;5.72;3.00;;;;;;;;;;5097497;28;20611;-59
2021/10/06 05:39:41;;;;;;;5.83;3.50;;;;;;;;;;5096510;28;20570;-62
2021/10/06 05:42:08;;;;;;;7.03;4.10;;;;;;;;;;5096573;28;20499;-62
2021/10/06 05:44:35;;;;;;;4.75;3.38;;;;;;;;;;5096942;28;20204;-62
2021/10/06 05:47:02;;;;;;;6.10;3.33;;;;;;;;;;5096484;28;20624;-61
2021/10/06 05:49:30;;;;;;;6.95;3.13;;;;;;;;;;5096659;28;20201;-61
2021/10/06 05:51:58;;;;;;;4.38;2.92;;;;;;;;;;5096442;28;20222;-61
2021/10/06 05:54:26;;;;;;;4.10;3.20;;;;;;;;;;5096204;28;20551;-61
2021/10/06 05:56:53;;;;;;;3.95;3.30;;;;;;;;;;5096083;28;20442;-61
2021/10/06 05:59:20;;;;;;;5.33;3.10;;;;;;;;;;5096109;28;20200;-60
2021/10/06 06:01:48;;;;;;;6.73;2.97;;;;;;;;;;5096150;28;20446;-60
2021/10/06 06:04:17;;;;;;;4.10;3.20;;;;;;;;;;5096028;28;20930;-60
2021/10/06 06:06:44;;;;;;;3.73;3.10;;;;;;;;;;5098599;28;20577;-65
2021/10/06 06:09:13;;;;;;;3.77;2.33;;;;;;;;;;5104167;28;20555;-62
2021/10/06 06:11:41;;;;;;;4.30;2.80;;;;;;;;;;5101638;28;20442;-58
2021/10/06 06:14:08;;;;;;;4.50;2.90;;;;;;;;;;5103378;28;20450;-62
2021/10/06 06:16:35;;;;;;;7.07;2.90;;;;;;;;;;5101799;28;20462;-61
2021/10/06 06:19:02;;;;;;;4.53;2.87;;;;;;;;;;5100741;28;20492;-61
2021/10/06 06:21:30;;;;;;;4.70;3.07;;;;;;;;;;5097169;28;20507;-61
2021/10/06 06:23:57;;;;;;;5.27;2.30;;;;;;;;;;5096699;28;20814;-61
2021/10/06 06:26:26;;;;;;;3.70;2.43;;;;;;;;;;5096479;28;20973;-61
2021/10/06 06:28:53;;;;;;;4.40;2.67;;;;;;;;;;5095214;28;20478;-60
2021/10/06 06:31:20;;;;;;;5.33;2.63;;;;;;;;;;5094243;28;21006;-60
2021/10/06 06:33:48;;;;;;;4.70;2.20;;;;;;;;;;5095686;28;20504;-60
2021/10/06 06:36:15;;;;;;;4.43;2.20;;;;;;;;;;5095526;28;20466;-60
2021/10/06 06:38:42;;;;;;;3.13;1.97;;;;;;;;;;5095420;28;20552;-60
2021/10/06 06:41:10;;;;;;;3.57;2.43;;;;;;;;;;5094815;28;20450;-60
2021/10/06 06:43:38;;;;;;;2.43;1.90;;;;;;;;;;5095495;28;20454;-61
2021/10/06 06:46:05;;;;;;;3.37;2.03;;;;;;;;;;5096259;28;20474;-62
2021/10/06 06:48:33;;;;;;;4.03;2.80;;;;;;;;;;5095654;28;20482;-62
2021/10/06 06:51:00;;;;;;;3.37;2.40;;;;;;;;;;5098015;28;20442;-60
2021/10/06 06:53:28;;;;;;;2.20;2.00;;;;;;;;;;5100710;28;20454;-61
2021/10/06 06:55:55;;;;;;;3.50;2.07;;;;;;;;;;5101690;28;20973;-60
2021/10/06 06:58:23;;;;;;;2.80;1.50;;;;;;;;;;5100234;28;20544;-61
2021/10/06 07:00:52;;;;;;;2.30;1.70;;;;;;;;;;5100361;28;20438;-61
2021/10/06 07:03:19;;;;;;;2.60;1.70;;;;;;;;;;5100570;28;20442;-61
2021/10/06 07:05:47;;;;;;;5.30;2.00;;;;;;;;;;5100147;28;20471;-60
2021/10/06 07:08:15;;;;;;;2.73;1.47;;;;;;;;;;5099846;28;20482;-61
2021/10/06 07:10:43;;;;;;;1.90;1.30;;;;;;;;;;5098581;28;20999;-61
2021/10/06 07:13:10;;;;;;;4.53;1.90;;;;;;;;;;5097967;28;20499;-61
2021/10/06 07:15:37;;;;;;;3.23;1.30;;;;;;;;;;5096631;28;20470;-61
2021/10/06 07:18:06;;;;;;;2.80;1.20;;;;;;;;;;5097076;28;20941;-61
2021/10/06 07:20:33;;;;;;;5.20;1.50;;;;;;;;;;5096966;28;20484;-61
2021/10/06 07:23:00;;;;;;;3.43;1.47;;;;;;;;;;5095252;28;20447;-61
2021/10/06 07:25:27;;;;;;;4.53;1.47;;;;;;;;;;5095352;28;20462;-62
2021/10/06 07:27:55;;;;;;;2.60;1.30;;;;;;;;;;5094525;28;20547;-61
2021/10/06 07:30:22;;;;;;;2.00;1.10;;;;;;;;;;5094880;28;20455;-61
2021/10/06 07:32:49;;;;;;;3.50;1.70;;;;;;;;;;5095028;28;20472;-60
2021/10/06 07:35:18;;;;;;;1.93;1.27;;;;;;;;;;5095187;28;20470;-61
2021/10/06 07:37:45;;;;;;;4.10;1.63;;;;;;;;;;5095393;28;20500;-60
2021/10/06 07:40:13;;;;;;;3.50;1.30;;;;;;;;;;5094727;28;20438;-60
2021/10/06 07:42:40;;;;;;;3.83;2.03;;;;;;;;;;5094441;28;20530;-61
2021/10/06 07:45:08;;;;;;;1.83;1.40;;;;;;;;;;5094839;28;20516;-60
2021/10/06 07:47:36;;;;;;;6.37;1.57;;;;;;;;;;5094109;28;20500;-61
2021/10/06 07:50:03;;;;;;;2.17;1.40;;;;;;;;;;5094146;28;20477;-60
2021/10/06 07:52:32;;;;;;;2.90;1.67;;;;;;;;;;5093755;28;20496;-58
2021/10/06 07:54:59;;;;;;;4.77;1.40;;;;;;;;;;5094218;28;20467;-61
2021/10/06 07:57:26;;;;;;;2.37;1.60;;;;;;;;;;5096157;28;20499;-60
2021/10/06 07:59:54;;;;;;;4.23;1.73;;;;;;;;;;5093900;28;20442;-60
2021/10/06 08:02:23;;;;;;;2.40;1.30;;;;;;;;;;5094046;28;20453;-61
2021/10/06 08:04:50;;;;;;;2.87;1.50;;;;;;;;;;5094258;28;20474;-60
2021/10/06 08:07:18;;;;;;;4.20;2.17;;;;;;;;;;5093834;28;20511;-60
2021/10/06 08:09:46;;;;;;;4.37;1.40;;;;;;;;;;5093791;28;20485;-60
2021/10/06 08:12:14;;;;;;;3.10;1.60;;;;;;;;;;5094341;28;20435;-61
2021/10/06 08:14:41;;;;;;;2.50;1.10;;;;;;;;;;5094161;28;20981;-60
2021/10/06 08:17:08;;;;;;;1.80;1.10;;;;;;;;;;5094776;28;20492;-60
2021/10/06 08:19:36;;;;;;;7.50;1.43;;;;;;;;;;5094292;28;20871;-60
2021/10/06 08:22:03;;;;;;;1.43;0.90;;;;;;;;;;5094504;28;20499;-61
2021/10/06 08:24:30;;;;;;;3.93;1.67;;;;;;;;;;5099725;28;20468;-61
2021/10/06 08:26:59;;;;;;;1.67;1.10;;;;;;;;;;5099215;28;20442;-60
2021/10/06 08:29:26;;;;;;;2.90;1.00;;;;;;;;;;5097667;28;20516;-60
2021/10/06 08:31:54;;;;;;;4.00;1.30;;;;;;;;;;5098769;28;20500;-60
2021/10/06 08:34:21;;;;;;;2.80;0.80;;;;;;;;;;5100049;28;20491;-60
2021/10/06 08:36:48;;;;;;;2.30;1.13;;;;;;;;;;5096258;28;20591;-61
2021/10/06 08:39:15;;;;;;;1.60;0.70;;;;;;;;;;5094533;28;20492;-61
2021/10/06 08:41:43;;;;;;;2.07;1.10;;;;;;;;;;5094390;28;20499;-61
2021/10/06 08:44:11;;;;;;;6.00;1.83;;;;;;;;;;5095683;28;20814;-61
2021/10/06 08:46:38;;;;;;;5.37;1.60;;;;;;;;;;5108290;28;20466;-62
2021/10/06 08:49:07;;;;;;;5.77;1.37;;;;;;;;;;5096604;28;21054;-60
2021/10/06 08:51:34;;;;;;;2.30;1.37;;;;;;;;;;5094756;28;20448;-61
2021/10/06 08:54:02;;;;;;;4.90;1.37;;;;;;;;;;5095410;28;20542;-59
2021/10/06 08:56:29;;;;;;;1.87;1.07;;;;;;;;;;5097503;28;20527;-61
2021/10/06 08:58:57;;;;;;;4.33;1.20;;;;;;;;;;5097910;28;20438;-60
2021/10/06 09:01:26;;;;;;;2.60;1.10;;;;;;;;;;5097569;28;20450;-60
2021/10/06 09:03:58;;;;;;;1.93;1.30;;;;;;;;;;5098323;28;20497;-60
2021/10/06 09:06:35;;;;;;;3.07;1.10;;;;;;;;;;5097453;28;20539;-60
2021/10/06 09:09:12;;;;;;;3.83;1.53;;;;;;;;;;5097027;28;20455;-61
2021/10/06 09:11:39;;;;;;;3.63;1.20;;;;;;;;;;5097230;28;20441;-61
2021/10/06 09:14:07;;;;;;;2.70;1.00;;;;;;;;;;5097203;28;20468;-60
2021/10/06 09:16:37;;;;;;;3.27;1.00;;;;;;;;;;5097060;28;20826;-60
2021/10/06 09:19:05;;;;;;;4.57;1.17;;;;;;;;;;5098637;28;20458;-61
2021/10/06 09:21:32;;;;;;;3.27;1.10;;;;;;;;;;5097609;28;20977;-61
2021/10/06 09:23:59;;;;;;;10.30;1.40;;;;;;;;;;5098914;28;20476;-61
2021/10/06 09:26:27;;;;;;;2.07;1.33;;;;;;;;;;5096664;28;20469;-61
2021/10/06 09:28:54;;;;;;;2.20;1.57;;;;;;;;;;5097326;28;20482;-60
2021/10/06 09:31:24;;;;;;;2.07;1.10;;;;;;;;;;5101400;28;20476;-60
2021/10/06 09:33:53;;;;;;;3.13;1.10;;;;;;;;;;5106312;28;20470;-61
2021/10/06 09:36:22;;;;;;;2.20;0.97;;;;;;;;;;5100888;28;20529;-61
2021/10/06 09:38:51;;;;;;;2.23;1.13;;;;;;;;;;5104178;28;20446;-61
2021/10/06 09:41:25;;;;;;;3.03;1.03;;;;;;;;;;5104895;28;20447;-58
2021/10/06 09:43:56;;;;;;;0.87;0.70;;;;;;;;;;5103608;28;21003;-60
2021/10/06 09:46:23;;;;;;;4.07;1.10;;;;;;;;;;5104432;28;20495;-60
2021/10/06 09:48:52;;;;;;;2.60;1.20;;;;;;;;;;5104148;28;20477;-60
2021/10/06 09:51:26;;;;;;;1.97;1.10;;;;;;;;;;5103959;28;20442;-61
2021/10/06 09:53:54;;;;;;;2.93;1.37;;;;;;;;;;5104255;28;20777;-62
2021/10/06 09:56:22;;;;;;;2.27;0.90;;;;;;;;;;5102952;28;20546;-65
2021/10/06 09:59:00;;;;;;;1.60;1.17;;;;;;;;;;5104355;28;20450;-63
2021/10/06 10:01:28;;;;;;;1.63;1.00;;;;;;;;;;5104106;28;20438;-59
2021/10/06 10:03:58;;;;;;;2.77;1.47;;;;;;;;;;5103073;28;20434;-61
2021/10/06 10:06:26;;;;;;;2.30;1.00;;;;;;;;;;5100772;28;20523;-61
2021/10/06 10:08:53;;;;;;;1.97;1.10;;;;;;;;;;5099410;28;20463;-61
2021/10/06 10:11:20;;;;;;;2.73;1.10;;;;;;;;;;5100652;28;20929;-60
2021/10/06 10:13:48;;;;;;;7.27;1.40;;;;;;;;;;5101139;28;20442;-61
2021/10/06 10:16:16;;;;;;;2.50;1.27;;;;;;;;;;5099543;28;20462;-60
2021/10/06 10:18:44;;;;;;;2.03;1.00;;;;;;;;;;5100083;28;20537;-60
2021/10/06 10:21:15;;;;;;;2.40;1.27;;;;;;;;;;5099389;28;20491;-61
2021/10/06 10:23:43;;;;;;;4.80;1.80;;;;;;;;;;5099310;28;20456;-61
2021/10/06 10:26:23;;;;;;;4.30;1.63;;;;;;;;;;5100080;28;20470;-60
2021/10/06 10:28:50;;;;;;;5.63;1.20;;;;;;;;;;5099900;28;20505;-60
2021/10/06 10:31:18;;;;;;;7.13;1.70;;;;;;;;;;5099480;28;20492;-60
2021/10/06 10:33:46;;;;;;;2.30;1.33;;;;;;;;;;5098624;28;20450;-60
2021/10/06 10:36:33;;;;;;;2.30;1.37;;;;;;;;;;5097641;28;20476;-60
2021/10/06 10:39:02;;;;;;;4.90;1.43;;;;;;;;;;5097265;28;20427;-60
2021/10/06 10:41:42;;;;;;;2.90;0.87;;;;;;;;;;5101234;28;20461;-60
2021/10/06 10:44:10;;;;;;;2.97;1.40;;;;;;;;;;5099136;28;20442;-61
2021/10/06 10:46:52;;;;;;;2.40;1.30;;;;;;;;;;5097506;28;20458;-60
2021/10/06 10:49:19;;;;;;;3.40;1.30;;;;;;;;;;5098174;28;20477;-60
2021/10/06 10:51:50;;;;;;;2.80;1.20;;;;;;;;;;5099320;28;20442;-58
2021/10/06 10:54:35;;;;;;;2.20;1.13;;;;;;;;;;5097923;28;20511;-60
2021/10/06 10:57:06;;;;;;;3.50;1.57;;;;;;;;;;5097012;28;21002;-59
2021/10/06 10:59:42;;;;;;;2.47;0.97;;;;;;;;;;5096303;28;20461;-61
2021/10/06 11:02:15;;;;;;;3.07;1.67;;;;;;;;;;5096765;28;20525;-60
2021/10/06 11:04:46;;;;;;;2.00;1.40;;;;;;;;;;5096473;28;20478;-59
2021/10/06 11:07:14;;;;;;;3.67;1.23;;;;;;;;;;5095694;28;20527;-61
2021/10/06 11:09:49;;;;;;;2.70;1.50;;;;;;;;;;5095221;28;20485;-60
2021/10/06 11:12:43;;;;;;;2.10;1.70;;;;;;;;;;5096497;28;20442;-61
2021/10/06 11:15:28;;;;;;;3.10;1.93;;;;;;;;;;5096582;28;20459;-58
2021/10/06 11:18:28;;;;;;;3.23;1.60;;;;;;;;;;5095575;28;20422;-60
2021/10/06 11:20:58;;;;;;;2.70;1.37;;;;;;;;;;5095691;28;20476;-62
2021/10/06 11:23:42;;;;;;;4.87;2.27;;;;;;;;;;5095031;28;20866;-61
2021/10/06 11:26:11;;;;;;;3.37;2.07;;;;;;;;;;5095258;28;20466;-60
2021/10/06 11:28:39;;;;;;;1.53;1.20;;;;;;;;;;5095595;28;20491;-61
2021/10/06 11:31:07;;;;;;;2.17;1.57;;;;;;;;;;5095541;28;20438;-62
2021/10/06 11:33:34;;;;;;;4.60;1.97;;;;;;;;;;5096062;28;20438;-62
2021/10/06 11:36:12;;;;;;;4.50;2.40;;;;;;;;;;5094497;28;20587;-60
2021/10/06 11:38:39;;;;;;;3.67;2.23;;;;;;;;;;5094337;28;20453;-62
2021/10/06 11:41:07;;;;;;;2.93;2.00;;;;;;;;;;5094616;28;20439;-61
2021/10/06 11:43:43;;;;;;;3.27;1.90;;;;;;;;;;5094084;28;20961;-61
2021/10/06 11:46:13;;;;;;;4.03;1.77;;;;;;;;;;5098143;28;20519;-60
2021/10/06 11:48:40;;;;;;;2.20;1.33;;;;;;;;;;5099533;28;20481;-61
2021/10/06 11:51:07;;;;;;;2.40;1.90;;;;;;;;;;5102192;28;20469;-61
2021/10/06 11:53:44;;;;;;;3.13;1.83;;;;;;;;;;5100734;28;20446;-62
2021/10/06 11:56:12;;;;;;;4.20;2.93;;;;;;;;;;5098699;28;20473;-60
2021/10/06 11:58:41;;;;;;;3.67;1.83;;;;;;;;;;5095910;28;20518;-60
2021/10/06 12:01:10;;;;;;;2.03;1.83;;;;;;;;;;5094995;28;20442;-62
2021/10/06 12:03:38;;;;;;;3.40;1.70;;;;;;;;;;5095050;28;20492;-59
2021/10/06 12:06:06;;;;;;;3.50;1.60;;;;;;;;;;5095095;28;20862;-61
2021/10/06 12:08:33;;;;;;;3.13;1.50;;;;;;;;;;5094587;28;20465;-60
2021/10/06 12:11:01;;;;;;;4.30;1.93;;;;;;;;;;5093974;28;20470;-61
2021/10/06 12:13:31;;;;;;;1.40;1.30;;;;;;;;;;5094523;28;20876;-61
2021/10/06 12:15:59;;;;;;;5.10;1.83;;;;;;;;;;5094361;28;20522;-60
2021/10/06 12:18:27;;;;;;;1.33;1.23;;;;;;;;;;5093853;28;20446;-60
2021/10/06 12:20:55;;;;;;;2.93;2.10;;;;;;;;;;5094261;28;20491;-61
2021/10/06 12:23:25;;;;;;;3.77;2.07;;;;;;;;;;5094133;28;20446;-61
2021/10/06 12:25:55;;;;;;;3.23;1.70;;;;;;;;;;5094272;28;20494;-61
2021/10/06 12:28:23;;;;;;;2.70;1.60;;;;;;;;;;5094174;28;20484;-61
2021/10/06 12:30:54;;;;;;;1.77;1.30;;;;;;;;;;5098243;28;20474;-61
2021/10/06 12:33:21;;;;;;;1.97;1.40;;;;;;;;;;5098105;28;20533;-61
2021/10/06 12:35:52;;;;;;;2.70;1.20;;;;;;;;;;5098259;28;20535;-60
2021/10/06 12:38:19;;;;;;;2.70;1.70;;;;;;;;;;5103340;28;20906;-61
2021/10/06 12:40:48;;;;;;;3.07;2.00;;;;;;;;;;5102754;28;20491;-59
2021/10/06 12:43:17;;;;;;;3.00;1.57;;;;;;;;;;5099227;28;20573;-61
2021/10/06 12:46:00;;;;;;;4.30;2.40;;;;;;;;;;5107736;22;21008;-57
2021/10/06 12:48:35;;;;;;;2.87;1.50;;;;;;;;;;5036708;28;20455;-59
2021/10/06 12:51:04;;;;;;;1.80;1.13;;;;;;;;;;5036666;28;20886;-58
2021/10/06 12:53:31;;;;;;;3.27;1.63;;;;;;;;;;5036532;28;20458;-58
2021/10/06 12:55:58;;;;;;;1.57;1.07;;;;;;;;;;5036394;28;20522;-58
2021/10/06 12:58:25;;;;;;;2.87;1.47;;;;;;;;;;5036586;28;20522;-58
2021/10/06 13:00:53;;;;;;;3.93;1.43;;;;;;;;;;5036326;28;20449;-58
2021/10/06 13:03:20;;;;;;;4.70;1.13;;;;;;;;;;5036690;28;20478;-58
2021/10/06 13:05:48;;;;;;;2.90;1.17;;;;;;;;;;5036272;28;20472;-57
2021/10/06 13:08:17;;;;;;;1.77;1.03;;;;;;;;;;5036315;28;20445;-57
2021/10/06 13:10:45;;;;;;;3.87;1.40;;;;;;;;;;5035823;28;20563;-58
2021/10/06 13:13:12;;;;;;;3.93;1.30;;;;;;;;;;5037095;28;20493;-58
2021/10/06 13:15:39;;;;;;;1.87;1.77;;;;;;;;;;5037890;28;20468;-58
2021/10/06 13:18:06;;;;;;;1.70;1.33;;;;;;;;;;5037706;28;20566;-58
2021/10/06 13:20:34;;;;;;;2.37;1.60;;;;;;;;;;5036043;28;20494;-57
2021/10/06 13:23:01;;;;;;;2.07;1.03;;;;;;;;;;5035990;28;20445;-57
2021/10/06 13:25:29;;;;;;;1.80;1.00;;;;;;;;;;5035354;28;20996;-57
2021/10/06 13:27:57;;;;;;;2.90;1.00;;;;;;;;;;5035527;28;20495;-57
2021/10/06 13:30:24;;;;;;;3.10;1.50;;;;;;;;;;5035357;28;21054;-57
2021/10/06 13:32:51;;;;;;;3.00;1.10;;;;;;;;;;5035245;28;20867;-57
2021/10/06 13:35:18;;;;;;;1.97;1.30;;;;;;;;;;5035287;28;20615;-57
2021/10/06 13:37:46;;;;;;;5.10;1.10;;;;;;;;;;5035597;28;20445;-57
2021/10/06 13:40:13;;;;;;;2.60;1.13;;;;;;;;;;5034660;28;20441;-57
2021/10/06 13:42:42;;;;;;;2.40;1.20;;;;;;;;;;5034983;28;20463;-58
2021/10/06 13:45:10;;;;;;;1.83;1.13;;;;;;;;;;5035149;28;20538;-58
2021/10/06 13:47:37;;;;;;;3.57;1.10;;;;;;;;;;5035318;28;20474;-56
2021/10/06 13:50:04;;;;;;;1.73;1.47;;;;;;;;;;5034893;28;20485;-56
2021/10/06 13:52:32;;;;;;;4.40;1.30;;;;;;;;;;5034728;28;20511;-57
2021/10/06 13:54:59;;;;;;;3.20;0.90;;;;;;;;;;5035387;28;20444;-57
2021/10/06 13:57:26;;;;;;;1.83;1.00;;;;;;;;;;5035098;28;20534;-57
2021/10/06 13:59:55;;;;;;;1.67;1.13;;;;;;;;;;5033852;28;20438;-57
2021/10/06 14:02:22;;;;;;;1.77;1.00;;;;;;;;;;5035112;28;20507;-56
2021/10/06 14:04:49;;;;;;;3.57;1.20;;;;;;;;;;5034747;28;20945;-58
2021/10/06 14:07:16;;;;;;;2.10;1.43;;;;;;;;;;5035673;28;20441;-57
2021/10/06 14:09:46;;;;;;;3.30;1.17;;;;;;;;;;5035404;28;20477;-57
2021/10/06 14:12:13;;;;;;;2.70;1.10;;;;;;;;;;5035274;28;20459;-58
2021/10/06 14:14:40;;;;;;;1.27;0.90;;;;;;;;;;5034971;28;20495;-57
2021/10/06 14:17:09;;;;;;;1.90;1.20;;;;;;;;;;5034820;28;20511;-57
2021/10/06 14:19:36;;;;;;;2.10;1.33;;;;;;;;;;5035015;28;20449;-57
2021/10/06 14:22:03;;;;;;;2.63;1.40;;;;;;;;;;5034869;28;20867;-57
2021/10/06 14:24:31;;;;;;;2.93;1.17;;;;;;;;;;5035314;28;20507;-58
2021/10/06 14:26:58;;;;;;;1.60;1.50;;;;;;;;;;5034316;28;20476;-57
2021/10/06 14:29:25;;;;;;;1.43;1.10;;;;;;;;;;5034461;28;20453;-57
2021/10/06 14:31:53;;;;;;;3.60;1.70;;;;;;;;;;5034164;28;20539;-57
2021/10/06 14:34:21;;;;;;;1.93;1.57;;;;;;;;;;5034428;28;20812;-58
2021/10/06 14:36:48;;;;;;;2.10;0.87;;;;;;;;;;5034326;28;20487;-57
2021/10/06 14:39:16;;;;;;;5.50;1.00;;;;;;;;;;5034274;28;20445;-55
2021/10/06 14:41:43;;;;;;;1.97;1.03;;;;;;;;;;5034101;28;20445;-57
2021/10/06 14:44:10;;;;;;;1.13;0.77;;;;;;;;;;5035277;28;20460;-57
2021/10/06 14:46:38;;;;;;;2.43;0.90;;;;;;;;;;5033893;28;20535;-58
2021/10/06 14:49:05;;;;;;;0.80;0.70;;;;;;;;;;5033505;28;20941;-57
2021/10/06 14:51:33;;;;;;;1.90;1.10;;;;;;;;;;5033247;28;20480;-57
2021/10/06 14:54:01;;;;;;;2.20;1.23;;;;;;;;;;5034095;28;20499;-57